Currently 58°F in Simi Valley, California, USA
58°F
58°F / 48°F
calm
0.00"
Sunday, February 25, 2024 9:57 AM PST

Simi Valley, California Weather Summary
Last 36 Hours

Temperature Winds Hourly Humidity Dewpoint
Time Report Norm Report Norm Max Gusts Precip. Rpt. Norm Rpt. Norm Pressure
1,2Sun 09:57 AM  58.3°F  60°F  calm  4 mph  none  0.00"  66%  51%  47°F  41°F  30.13"
Sun 09:00 AM  55.1°F  56°F  calm  4 mph  none  0.00"  77%  58%  48°F  40°F  30.11"
Sun 08:00 AM  50.5°F  51°F  calm  3 mph  none  0.00"  81%  63%  45°F  38°F  30.11"
Sun 07:00 AM  48.1°F  48°F  calm  3 mph  4 mph  0.00"  80%  65%  42°F  37°F  30.10"
Sun 06:00 AM  47.7°F  48°F  calm  3 mph  4 mph  0.00"  79%  65%  41°F  37°F  30.08"
3Sun 05:35 AM  47.7°F  49°F  calm  3 mph  4 mph  ----  78%  65%  41°F  37°F  30.07"
Sun 05:00 AM  48.1°F  49°F  calm  3 mph  none  0.00"  76%  64%  41°F  37°F  30.07"
Sun 04:00 AM  49.3°F  49°F  calm  3 mph  5 mph  0.00"  74%  64%  41°F  37°F  30.07"
Sun 03:00 AM  49.8°F  49°F  calm  3 mph  none  0.00"  74%  64%  41°F  37°F  30.09"
Sun 02:00 AM  50.2°F  50°F  calm  2 mph  none  0.00"  74%  64%  42°F  38°F  30.09"
Sun 01:00 AM  50.3°F  50°F  calm  3 mph  none  0.00"  75%  65%  42°F  38°F  30.10"
Sun 12:00 AM  51.1°F  50°F  calm  2 mph  none  0.00"  74%  64%  43°F  38°F  30.09"
Sat 11:00 PM  52.2°F  51°F  calm  2 mph  none  0.00"  72%  64%  43°F  39°F  30.09"
Sat 10:00 PM  52.9°F  52°F  calm  3 mph  none  0.00"  71%  63%  43°F  39°F  30.09"
Sat 09:00 PM  53.4°F  52°F  calm  2 mph  none  0.00"  72%  62%  44°F  39°F  30.08"
Sat 08:00 PM  55.2°F  54°F  calm  2 mph  none  0.00"  69%  61%  45°F  40°F  30.08"
Sat 07:00 PM  59.3°F  56°F  calm  2 mph  none  0.00"  61%  59%  45°F  41°F  30.08"
Sat 06:00 PM  63.3°F  58°F  calm  3 mph  8 mph  0.00"  56%  55%  47°F  42°F  30.07"
Sat 05:00 PM  66.9°F  61°F  calm  5 mph  13 mph  0.00"  48%  51%  46°F  42°F  30.06"
Sat 04:00 PM  69.6°F  63°F  calm  6 mph  10 mph  0.00"  47%  47%  48°F  42°F  30.04"
Sat 03:00 PM  74.9°F  65°F  calm  6 mph  12 mph  0.00"  31%  45%  41°F  42°F  30.03"
Sat 02:00 PM  74.4°F  66°F  3 mph NW  5 mph  13 mph  0.00"  32%  43%  41°F  41°F  30.04"
Sat 01:00 PM  73.1°F  65°F  calm  5 mph  8 mph  0.00"  34%  42%  42°F  41°F  30.06"
Sat 12:00 PM  71.9°F  64°F  calm  5 mph  none  0.00"  37%  43%  43°F  41°F  30.08"
Sat 11:00 AM  69.1°F  62°F  calm  5 mph  none  0.00"  38%  46%  42°F  41°F  30.10"
Sat 10:00 AM  65.2°F  59°F  calm  4 mph  8 mph  0.00"  40%  52%  39°F  41°F  30.11"
Sat 09:00 AM  64.2°F  55°F  calm  4 mph  8 mph  0.00"  41%  58%  39°F  40°F  30.11"
Sat 08:00 AM  62.0°F  51°F  calm  3 mph  4 mph  0.00"  43%  63%  38°F  38°F  30.10"
Sat 07:00 AM  61.9°F  48°F  calm  3 mph  9 mph  0.00"  41%  66%  37°F  36°F  30.07"
Sat 06:00 AM  61.8°F  48°F  calm  3 mph  9 mph  0.00"  43%  66%  38°F  37°F  30.06"
Sat 05:00 AM  59.8°F  48°F  calm  3 mph  9 mph  0.00"  47%  65%  39°F  37°F  30.06"
Sat 04:00 AM  60.5°F  49°F  1 mph N  3 mph  10 mph  0.00"  44%  65%  38°F  37°F  30.06"
Sat 03:00 AM  60.8°F  49°F  2 mph N  3 mph  10 mph  0.00"  45%  65%  38°F  37°F  30.07"
Sat 02:00 AM  60.4°F  49°F  calm  2 mph  10 mph  0.00"  47%  66%  39°F  38°F  30.08"
Sat 01:00 AM  57.3°F  49°F  1 mph W  3 mph  9 mph  0.00"  51%  66%  38°F  38°F  30.08"
Sat 12:00 AM  59.5°F  50°F  calm  2 mph  9 mph  0.00"  48%  66%  39°F  38°F  30.09"
Fri 11:00 PM  62.7°F  51°F  calm  2 mph  10 mph  0.00"  41%  65%  38°F  39°F  30.09"
Fri 10:00 PM  63.3°F  52°F  1 mph N  3 mph  10 mph  0.00"  40%  64%  38°F  39°F  30.08"

  1. Current weather data. No green row appears if the current weather data is also the high or low for the current day.
  2. High temperature for the current day.
  3. Low temperature for the current day.

The Simi Valley, California weather pages are a service of WeatherCurrents.
Copyright ©2024  WeatherCurrents. All rights reserved. - Submit questions and comments - Privacy Policy

This page automatically refreshes every 10 minutes.